createdAt,value
2024-02-08T00:01:47.185Z,33.21
2024-02-08T00:04:17.673Z,33.20
2024-02-08T00:06:47.995Z,33.35
2024-02-08T00:09:18.469Z,33.37
2024-02-08T00:11:48.795Z,33.39
2024-02-08T00:14:18.993Z,33.40
2024-02-08T00:16:49.270Z,33.49
2024-02-08T00:19:19.582Z,33.52
2024-02-08T00:21:51.207Z,33.51
2024-02-08T00:24:21.461Z,33.60
2024-02-08T00:26:51.742Z,33.57
2024-02-08T00:29:25.580Z,33.50
2024-02-08T00:31:55.855Z,33.56
2024-02-08T00:34:26.256Z,33.64
2024-02-08T00:36:56.485Z,33.60
2024-02-08T00:39:26.744Z,33.72
2024-02-08T00:41:58.489Z,33.73
2024-02-08T00:44:29.317Z,33.62
2024-02-08T00:46:59.683Z,33.67
2024-02-08T00:49:30.049Z,33.72
2024-02-08T00:52:01.391Z,33.78
2024-02-08T00:54:31.656Z,33.80
2024-02-08T00:57:01.891Z,33.74
2024-02-08T00:59:32.151Z,33.75
2024-02-08T01:02:02.655Z,33.83
2024-02-08T01:04:32.923Z,33.80
2024-02-08T01:07:03.223Z,33.82
2024-02-08T01:09:33.590Z,33.87
2024-02-08T01:12:05.747Z,33.76
2024-02-08T01:14:36.040Z,33.84
2024-02-08T01:17:06.940Z,33.91
2024-02-08T01:19:37.494Z,33.85
2024-02-08T01:22:08.019Z,33.94
2024-02-08T01:24:38.227Z,33.83
2024-02-08T01:27:09.359Z,33.79
2024-02-08T01:29:39.579Z,33.94
2024-02-08T01:32:10.071Z,33.85
2024-02-08T01:34:42.173Z,33.81
2024-02-08T01:37:14.190Z,33.62
2024-02-08T01:39:44.744Z,33.18
2024-02-08T01:42:15.616Z,33.00
2024-02-08T01:44:47.736Z,32.98
2024-02-08T01:47:18.292Z,32.94
2024-02-08T01:49:49.082Z,32.78
2024-02-08T01:52:20.352Z,32.80
2024-02-08T01:54:51.061Z,32.81
2024-02-08T01:57:21.373Z,32.92
2024-02-08T01:59:54.433Z,32.98
2024-02-08T02:02:25.106Z,32.84
2024-02-08T02:04:55.444Z,32.94
2024-02-08T02:07:26.610Z,33.04
2024-02-08T02:09:57.061Z,32.97
2024-02-08T02:12:31.130Z,32.97
2024-02-08T02:15:05.085Z,33.01
2024-02-08T02:17:35.368Z,33.09
2024-02-08T02:20:08.260Z,33.17
2024-02-08T02:22:43.442Z,33.11
2024-02-08T02:25:14.886Z,33.12
2024-02-08T02:27:45.222Z,33.11
2024-02-08T02:30:17.811Z,33.21
2024-02-08T02:32:50.799Z,33.05
2024-02-08T02:35:23.340Z,33.25
2024-02-08T02:37:53.594Z,33.22
2024-02-08T02:40:25.160Z,33.21
2024-02-08T02:42:56.099Z,33.33
2024-02-08T02:45:30.236Z,33.36
2024-02-08T02:48:03.067Z,33.36
2024-02-08T02:50:33.616Z,33.35
2024-02-08T02:53:04.001Z,33.46
2024-02-08T02:55:36.062Z,33.29
2024-02-08T02:58:06.682Z,33.48
2024-02-08T03:00:37.803Z,33.43
2024-02-08T03:03:13.673Z,33.46
2024-02-08T03:05:47.045Z,33.42
2024-02-08T03:08:17.859Z,33.45
2024-02-08T03:10:48.469Z,33.52
2024-02-08T03:13:19.518Z,33.60
2024-02-08T03:15:50.256Z,33.57
2024-02-08T03:18:24.673Z,33.61
2024-02-08T03:20:54.898Z,33.57
2024-02-08T03:23:26.189Z,33.67
2024-02-08T03:25:57.735Z,33.57
2024-02-08T03:28:29.926Z,33.62
2024-02-08T03:31:00.221Z,33.58
2024-02-08T03:33:30.535Z,33.65
2024-02-08T03:36:00.832Z,33.65
2024-02-08T03:38:31.073Z,33.66
2024-02-08T03:41:01.364Z,33.66
2024-02-08T03:43:34.150Z,33.66
2024-02-08T03:46:08.596Z,33.66
2024-02-08T03:48:39.568Z,33.74
2024-02-08T03:51:11.814Z,33.67
2024-02-08T03:53:44.065Z,33.74
2024-02-08T03:56:17.729Z,33.92
2024-02-08T03:58:48.147Z,33.86
2024-02-08T04:01:22.368Z,33.79
2024-02-08T04:03:57.697Z,33.87
2024-02-08T04:06:50.569Z,33.89
2024-02-08T04:09:35.089Z,33.87
2024-02-08T04:12:23.018Z,33.99
2024-02-08T04:15:10.691Z,33.90
2024-02-08T04:17:58.418Z,33.97
2024-02-08T04:20:45.998Z,33.82
2024-02-08T04:23:34.867Z,33.98
2024-02-08T04:26:25.181Z,34.00
2024-02-08T04:29:13.523Z,34.02
2024-02-08T04:32:01.499Z,34.07
2024-02-08T04:34:51.746Z,34.01
2024-02-08T04:37:39.562Z,34.13
2024-02-08T04:40:31.480Z,34.16
2024-02-08T04:43:20.645Z,34.23
2024-02-08T04:46:08.217Z,33.93
2024-02-08T04:48:56.158Z,33.56
2024-02-08T04:51:44.078Z,33.32
2024-02-08T04:54:14.306Z,33.48
2024-02-08T04:56:47.896Z,33.34
2024-02-08T04:59:23.616Z,33.12
2024-02-08T05:01:54.723Z,33.01
2024-02-08T05:04:25.253Z,32.93
2024-02-08T05:06:57.077Z,33.02
2024-02-08T05:09:28.375Z,32.79
2024-02-08T05:12:00.597Z,32.84
2024-02-08T05:14:30.841Z,32.84
2024-02-08T05:17:01.949Z,32.81
2024-02-08T05:19:32.362Z,32.90
2024-02-08T05:22:03.658Z,32.84
2024-02-08T05:24:34.141Z,32.83
2024-02-08T05:27:04.784Z,32.86
2024-02-08T05:29:40.371Z,32.85
2024-02-08T05:32:11.651Z,32.93
2024-02-08T05:34:42.446Z,32.97
2024-02-08T05:37:12.863Z,32.93
2024-02-08T05:39:45.052Z,33.02
2024-02-08T05:42:15.364Z,32.98
2024-02-08T05:44:46.468Z,33.01
2024-02-08T05:47:18.445Z,32.96
2024-02-08T05:49:54.324Z,33.10
2024-02-08T05:52:27.654Z,33.00
2024-02-08T05:54:59.380Z,33.09
2024-02-08T05:57:31.954Z,33.19
2024-02-08T06:00:11.247Z,33.23
2024-02-08T06:02:42.075Z,33.27
2024-02-08T06:05:19.389Z,33.29
2024-02-08T06:07:57.542Z,33.32
2024-02-08T06:10:43.112Z,33.25
2024-02-08T06:13:16.578Z,33.28
2024-02-08T06:15:48.559Z,33.24
2024-02-08T06:18:26.011Z,33.10
2024-02-08T06:21:00.997Z,32.97
2024-02-08T06:23:36.276Z,33.01
2024-02-08T06:26:24.457Z,32.75
2024-02-08T06:28:55.259Z,32.58
2024-02-08T06:31:34.329Z,32.48
2024-02-08T06:34:28.966Z,32.36
2024-02-08T06:37:17.669Z,32.40
2024-02-08T06:39:57.119Z,32.32
2024-02-08T06:43:06.299Z,32.31
2024-02-08T06:45:59.322Z,32.43
2024-02-08T06:48:50.772Z,32.38
2024-02-08T06:51:38.711Z,32.40
2024-02-08T06:54:26.758Z,32.50
2024-02-08T06:57:14.536Z,32.54
2024-02-08T07:00:02.174Z,32.53
2024-02-08T07:02:49.784Z,32.44
2024-02-08T07:05:37.289Z,32.56
2024-02-08T07:08:25.764Z,32.70
2024-02-08T07:11:13.361Z,32.74
2024-02-08T07:14:01.215Z,32.65
2024-02-08T07:16:48.809Z,32.76
2024-02-08T07:19:36.671Z,32.88
2024-02-08T07:22:24.757Z,32.69
2024-02-08T07:25:12.643Z,32.83
2024-02-08T07:28:00.795Z,32.81
2024-02-08T07:30:48.749Z,32.94
2024-02-08T07:33:35.839Z,32.92
2024-02-08T07:36:24.245Z,32.87
2024-02-08T07:39:22.039Z,33.08
2024-02-08T07:41:55.515Z,32.92
2024-02-08T07:44:34.096Z,33.04
2024-02-08T07:47:13.670Z,33.03
2024-02-08T07:49:45.513Z,33.02
2024-02-08T07:52:20.371Z,33.11
2024-02-08T07:54:57.740Z,33.13
2024-02-08T07:57:32.679Z,33.19
2024-02-08T08:00:03.007Z,33.22
2024-02-08T08:02:36.237Z,33.25
2024-02-08T08:05:16.112Z,33.33
2024-02-08T08:07:46.609Z,33.34
2024-02-08T08:10:26.883Z,33.23
2024-02-08T08:12:57.236Z,33.21
2024-02-08T08:15:27.654Z,32.23
2024-02-08T08:18:02.373Z,32.11
2024-02-08T08:20:58.326Z,31.95
2024-02-08T08:23:28.756Z,31.98
2024-02-08T08:26:21.917Z,31.84
2024-02-08T08:29:03.470Z,31.83
2024-02-08T08:31:40.121Z,32.09
2024-02-08T08:34:28.175Z,32.16
2024-02-08T08:37:03.928Z,32.27
2024-02-08T08:40:11.367Z,32.29
2024-02-08T08:42:46.806Z,32.41
2024-02-08T08:45:18.142Z,32.54
2024-02-08T08:47:52.393Z,32.61
2024-02-08T08:50:31.913Z,32.65
2024-02-08T08:53:08.579Z,32.67
2024-02-08T08:55:40.852Z,32.83
2024-02-08T08:58:13.636Z,32.86
2024-02-08T09:00:47.988Z,32.82
2024-02-08T09:03:27.938Z,32.85
2024-02-08T09:05:58.708Z,32.97
2024-02-08T09:08:42.915Z,32.91
2024-02-08T09:11:14.730Z,32.94
2024-02-08T09:13:46.059Z,33.07
2024-02-08T09:16:36.874Z,33.23
2024-02-08T09:19:08.186Z,33.28
2024-02-08T09:21:40.124Z,33.31
2024-02-08T09:24:19.040Z,33.09
2024-02-08T09:26:52.866Z,32.93
2024-02-08T09:29:29.952Z,32.94
2024-02-08T09:32:16.960Z,32.93
2024-02-08T09:34:54.205Z,32.76
2024-02-08T09:37:24.532Z,32.93
2024-02-08T09:40:00.946Z,32.79
2024-02-08T09:42:31.648Z,32.92
2024-02-08T09:45:19.184Z,33.02
2024-02-08T09:47:53.271Z,33.03
2024-02-08T09:50:32.167Z,33.11
2024-02-08T09:53:08.669Z,33.23
2024-02-08T09:55:39.863Z,33.19
2024-02-08T09:58:11.823Z,33.23
2024-02-08T10:00:55.946Z,33.14
2024-02-08T10:03:34.018Z,33.23
2024-02-08T10:06:14.518Z,33.28
2024-02-08T10:08:55.323Z,33.30
2024-02-08T10:11:25.849Z,33.26
2024-02-08T10:14:03.279Z,33.32
2024-02-08T10:16:44.379Z,33.54
2024-02-08T10:19:29.724Z,33.61
2024-02-08T10:22:02.048Z,33.52
2024-02-08T10:25:06.582Z,33.62
2024-02-08T10:27:37.296Z,33.69
2024-02-08T10:30:09.321Z,33.56
2024-02-08T10:32:39.584Z,33.82
2024-02-08T10:35:21.106Z,33.77
2024-02-08T10:37:55.105Z,33.91
2024-02-08T10:40:33.398Z,34.15
2024-02-08T10:43:17.782Z,33.96
2024-02-08T10:45:54.216Z,33.97
2024-02-08T10:48:25.245Z,33.96
2024-02-08T10:51:00.764Z,34.02
2024-02-08T10:53:49.520Z,34.14
2024-02-08T10:56:19.839Z,34.09
2024-02-08T10:59:10.755Z,34.08
2024-02-08T11:02:01.805Z,34.07
2024-02-08T11:04:39.790Z,34.22
2024-02-08T11:07:18.200Z,34.34
2024-02-08T11:09:48.927Z,34.17
2024-02-08T11:12:22.685Z,34.17
2024-02-08T11:14:57.825Z,34.25
2024-02-08T11:17:33.659Z,34.28
2024-02-08T11:20:04.964Z,34.38
2024-02-08T11:22:41.174Z,34.45
2024-02-08T11:25:22.268Z,34.37
2024-02-08T11:27:53.180Z,34.48
2024-02-08T11:30:35.078Z,34.30
2024-02-08T11:33:07.005Z,34.48
2024-02-08T11:35:37.840Z,34.43
2024-02-08T11:38:18.729Z,34.44
2024-02-08T11:40:49.790Z,34.51
2024-02-08T11:43:26.115Z,34.51
2024-02-08T11:45:57.524Z,34.48
2024-02-08T11:48:28.942Z,34.49
2024-02-08T11:51:00.684Z,34.58
2024-02-08T11:53:34.272Z,34.65
2024-02-08T11:56:09.782Z,34.66
2024-02-08T11:58:42.308Z,34.88
2024-02-08T12:01:14.554Z,34.77
2024-02-08T12:03:45.436Z,34.67
2024-02-08T12:06:27.102Z,34.98
2024-02-08T12:08:59.792Z,34.61
2024-02-08T12:11:31.509Z,34.32
2024-02-08T12:14:11.100Z,34.16
2024-02-08T12:16:58.178Z,33.77
2024-02-08T12:19:30.206Z,33.76
2024-02-08T12:22:04.913Z,33.73
2024-02-08T12:24:36.214Z,33.76
2024-02-08T12:27:12.754Z,33.75
2024-02-08T12:29:46.981Z,33.85
2024-02-08T12:32:18.624Z,33.72
2024-02-08T12:34:50.199Z,33.75
2024-02-08T12:37:23.797Z,33.90
2024-02-08T12:39:55.145Z,33.73
2024-02-08T12:42:25.517Z,33.92
2024-02-08T12:44:57.685Z,34.03
2024-02-08T12:47:28.046Z,34.28
2024-02-08T12:52:31.803Z,34.32
2024-02-08T12:55:02.357Z,34.59
2024-02-08T12:57:32.686Z,35.12
2024-02-08T13:00:09.041Z,35.25
2024-02-08T13:02:40.754Z,35.18
2024-02-08T13:05:11.453Z,35.25
2024-02-08T13:07:42.570Z,35.14
2024-02-08T13:10:17.405Z,35.16
2024-02-08T13:12:48.557Z,35.16
2024-02-08T13:15:23.900Z,35.02
2024-02-08T13:17:57.674Z,35.10
2024-02-08T13:20:28.590Z,34.89
2024-02-08T13:22:58.968Z,34.44
2024-02-08T13:25:30.151Z,34.28
2024-02-08T13:28:00.518Z,34.24
2024-02-08T13:30:31.775Z,34.12
2024-02-08T13:33:06.350Z,34.06
2024-02-08T13:35:40.942Z,34.17
2024-02-08T13:38:12.257Z,34.19
2024-02-08T13:40:45.695Z,34.08
2024-02-08T13:43:15.469Z,34.08
2024-02-08T13:48:18.717Z,34.13
2024-02-08T13:50:49.006Z,34.07
2024-02-08T13:53:19.267Z,34.06
2024-02-08T13:55:55.382Z,34.11
2024-02-08T13:58:27.483Z,34.14
2024-02-08T14:00:59.347Z,34.02
2024-02-08T14:03:31.711Z,34.17
2024-02-08T14:06:03.098Z,34.28
2024-02-08T14:08:33.537Z,34.31
2024-02-08T14:11:10.288Z,34.33
2024-02-08T14:13:40.718Z,34.37
2024-02-08T14:16:16.214Z,34.41
2024-02-08T14:18:55.868Z,34.32
2024-02-08T14:21:28.745Z,34.40
2024-02-08T14:24:03.383Z,34.46
2024-02-08T14:26:38.855Z,34.48
2024-02-08T14:29:10.123Z,34.44
2024-02-08T14:31:42.596Z,34.45
2024-02-08T14:34:13.508Z,34.48
2024-02-08T14:36:49.636Z,34.41
2024-02-08T14:39:33.783Z,34.52
2024-02-08T14:42:11.885Z,34.64
2024-02-08T14:44:46.128Z,34.47
2024-02-08T14:47:22.768Z,34.55
2024-02-08T14:50:02.121Z,34.51
2024-02-08T14:52:37.966Z,34.50
2024-02-08T14:55:21.106Z,34.55
2024-02-08T14:57:53.989Z,34.64
2024-02-08T15:00:39.191Z,34.51
2024-02-08T15:03:10.710Z,34.60
2024-02-08T15:05:49.973Z,34.66
2024-02-08T15:08:46.910Z,34.69
2024-02-08T15:11:33.647Z,34.20
2024-02-08T15:14:03.954Z,33.98
2024-02-08T15:16:34.302Z,33.93
2024-02-08T15:19:04.688Z,33.81
2024-02-08T15:21:37.918Z,33.67
2024-02-08T15:24:21.008Z,33.60
2024-02-08T15:27:06.537Z,33.57
2024-02-08T15:29:43.926Z,33.50
2024-02-08T15:32:19.694Z,33.45
2024-02-08T15:35:07.426Z,33.35
2024-02-08T15:37:44.349Z,33.34
2024-02-08T15:40:17.783Z,33.25
2024-02-08T15:42:49.793Z,33.20
2024-02-08T15:45:22.571Z,33.14
2024-02-08T15:48:04.841Z,33.23
2024-02-08T15:50:37.953Z,33.21
2024-02-08T15:53:17.531Z,33.14
2024-02-08T15:55:50.615Z,33.23
2024-02-08T15:58:26.637Z,33.23
2024-02-08T16:01:14.548Z,33.10
2024-02-08T16:03:56.120Z,33.06
2024-02-08T16:06:54.943Z,33.16
2024-02-08T16:09:33.322Z,33.17
2024-02-08T16:12:17.285Z,33.26
2024-02-08T16:14:49.498Z,33.32
2024-02-08T16:17:38.385Z,33.37
2024-02-08T16:20:24.411Z,33.51
2024-02-08T16:22:56.343Z,33.64
2024-02-08T16:25:44.909Z,33.74
2024-02-08T16:28:23.811Z,33.81
2024-02-08T16:31:07.436Z,34.07
2024-02-08T16:33:48.347Z,34.24
2024-02-08T16:36:36.385Z,34.15
2024-02-08T16:39:29.192Z,34.23
2024-02-08T16:42:02.243Z,34.40
2024-02-08T16:44:36.510Z,34.50
2024-02-08T16:47:28.186Z,34.66
2024-02-08T16:50:00.004Z,34.63
2024-02-08T16:52:40.422Z,34.61
2024-02-08T16:55:14.835Z,34.77
2024-02-08T16:57:52.937Z,34.70
2024-02-08T17:00:43.529Z,34.72
2024-02-08T17:03:38.221Z,34.66
2024-02-08T17:06:17.721Z,34.58
2024-02-08T17:09:16.810Z,34.68
2024-02-08T17:11:50.200Z,34.52
2024-02-08T17:14:34.368Z,34.57
2024-02-08T17:17:14.297Z,34.47
2024-02-08T17:19:58.352Z,34.40
2024-02-08T17:22:52.865Z,34.40
2024-02-08T17:25:26.646Z,34.29
2024-02-08T17:28:15.874Z,34.33
2024-02-08T17:31:06.758Z,34.22
2024-02-08T17:33:41.438Z,34.12
2024-02-08T17:36:15.613Z,34.03
2024-02-08T17:38:46.174Z,34.13
2024-02-08T17:41:17.184Z,34.11
2024-02-08T17:43:56.313Z,34.42
2024-02-08T17:46:31.316Z,34.31
2024-02-08T17:49:05.683Z,34.34
2024-02-08T17:51:39.875Z,34.27
2024-02-08T17:54:11.526Z,34.24
2024-02-08T17:56:46.329Z,34.19
2024-02-08T17:59:18.174Z,34.34
2024-02-08T18:01:56.979Z,34.06
2024-02-08T18:04:29.403Z,34.20
2024-02-08T18:07:08.202Z,34.11
2024-02-08T18:09:41.801Z,34.06
2024-02-08T18:12:23.551Z,34.08
2024-02-08T18:14:57.038Z,34.03
2024-02-08T18:17:27.392Z,33.62
2024-02-08T18:20:01.158Z,33.49
2024-02-08T18:22:32.554Z,33.25
2024-02-08T18:25:07.982Z,33.28
2024-02-08T18:27:38.332Z,33.16
2024-02-08T18:30:10.901Z,33.19
2024-02-08T18:32:41.895Z,33.14
2024-02-08T18:35:12.435Z,33.23
2024-02-08T18:37:45.457Z,33.20
2024-02-08T18:40:19.636Z,33.18
2024-02-08T18:42:50.331Z,33.14
2024-02-08T18:45:25.951Z,33.06
2024-02-08T18:47:58.570Z,33.21
2024-02-08T18:50:31.516Z,33.23
2024-02-08T18:53:01.956Z,33.22
2024-02-08T18:55:40.717Z,33.19
2024-02-08T18:58:14.038Z,33.28
2024-02-08T19:00:47.622Z,33.28
2024-02-08T19:03:21.511Z,33.27
2024-02-08T19:05:52.640Z,33.38
2024-02-08T19:08:23.237Z,33.33
2024-02-08T19:10:58.977Z,33.45
2024-02-08T19:13:31.713Z,33.44
2024-02-08T19:16:08.343Z,33.51
2024-02-08T19:18:47.131Z,33.68
2024-02-08T19:21:28.289Z,33.56
2024-02-08T19:24:01.522Z,33.70
2024-02-08T19:26:32.656Z,33.77
2024-02-08T19:29:06.974Z,33.65
2024-02-08T19:31:42.584Z,33.34
2024-02-08T19:34:18.620Z,33.11
2024-02-08T19:36:52.629Z,32.95
2024-02-08T19:39:37.372Z,32.83
2024-02-08T19:42:19.083Z,32.69
2024-02-08T19:44:53.708Z,32.85
2024-02-08T19:47:28.014Z,32.88
2024-02-08T19:50:05.490Z,32.86
2024-02-08T19:52:45.311Z,32.79
2024-02-08T19:55:29.871Z,32.92
2024-02-08T19:58:00.812Z,32.92
2024-02-08T20:00:31.365Z,32.89
2024-02-08T20:03:08.606Z,32.95
2024-02-08T20:05:43.076Z,33.04
2024-02-08T20:08:13.931Z,32.94
2024-02-08T20:10:44.734Z,32.87
2024-02-08T20:13:18.797Z,33.13
2024-02-08T20:15:49.569Z,33.22
2024-02-08T20:18:20.243Z,33.23
2024-02-08T20:20:53.088Z,33.25
2024-02-08T20:23:33.051Z,33.30
2024-02-08T20:26:09.236Z,33.32
2024-02-08T20:28:44.837Z,33.38
2024-02-08T20:31:18.031Z,33.45
2024-02-08T20:33:48.543Z,33.45
2024-02-08T20:36:22.395Z,33.39
2024-02-08T20:38:54.654Z,33.46
2024-02-08T20:41:25.521Z,33.43
2024-02-08T20:43:56.630Z,33.52
2024-02-08T20:46:28.565Z,33.50
2024-02-08T20:48:59.158Z,33.43
2024-02-08T20:51:29.705Z,33.74
2024-02-08T20:54:01.668Z,33.55
2024-02-08T20:56:37.543Z,33.69
2024-02-08T20:59:08.214Z,33.65
2024-02-08T21:01:38.599Z,33.74
2024-02-08T21:04:09.233Z,33.74
2024-02-08T21:06:41.763Z,33.91
2024-02-08T21:09:13.118Z,33.77
2024-02-08T21:11:43.562Z,33.62
2024-02-08T21:14:17.179Z,33.41
2024-02-08T21:16:49.790Z,33.40
2024-02-08T21:19:21.937Z,33.35
2024-02-08T21:21:53.821Z,33.20
2024-02-08T21:24:24.569Z,33.26
2024-02-08T21:26:55.814Z,33.23
2024-02-08T21:29:28.809Z,33.30
2024-02-08T21:32:00.693Z,33.21
2024-02-08T21:34:35.681Z,33.27
2024-02-08T21:37:07.877Z,33.26
2024-02-08T21:39:41.066Z,33.28
2024-02-08T21:42:15.937Z,33.18
2024-02-08T21:44:47.288Z,33.35
2024-02-08T21:47:17.647Z,33.22
2024-02-08T21:49:48.234Z,33.31
2024-02-08T21:52:18.675Z,33.31
2024-02-08T21:54:48.929Z,33.29
2024-02-08T21:57:19.172Z,33.38
2024-02-08T21:59:49.768Z,33.42
2024-02-08T22:02:20.449Z,33.53
2024-02-08T22:04:50.956Z,33.42
2024-02-08T22:07:21.702Z,33.54
2024-02-08T22:09:54.336Z,33.57
2024-02-08T22:12:26.193Z,33.60
2024-02-08T22:14:56.499Z,33.59
2024-02-08T22:17:27.566Z,33.51
2024-02-08T22:19:57.933Z,33.73
2024-02-08T22:22:28.419Z,33.65
2024-02-08T22:25:00.215Z,33.68
2024-02-08T22:27:30.715Z,33.64
2024-02-08T22:30:01.140Z,33.70
2024-02-08T22:32:31.511Z,33.70
2024-02-08T22:35:01.920Z,33.76
2024-02-08T22:37:32.371Z,33.80
2024-02-08T22:40:07.494Z,33.79
2024-02-08T22:42:38.130Z,33.59
2024-02-08T22:45:11.136Z,33.55
2024-02-08T22:47:43.278Z,33.58
2024-02-08T22:50:14.664Z,33.52
2024-02-08T22:52:46.797Z,33.40
2024-02-08T22:55:17.894Z,33.41
2024-02-08T22:57:49.014Z,33.36
2024-02-08T23:00:31.254Z,33.26
2024-02-08T23:03:08.077Z,33.31
2024-02-08T23:05:41.529Z,33.23
2024-02-08T23:08:12.193Z,33.14
2024-02-08T23:10:43.480Z,33.10
2024-02-08T23:13:14.553Z,33.05
2024-02-08T23:15:47.638Z,32.96
2024-02-08T23:18:19.673Z,32.88
2024-02-08T23:20:51.643Z,32.85
2024-02-08T23:23:22.250Z,32.66
2024-02-08T23:25:52.566Z,32.52
2024-02-08T23:28:22.875Z,32.54
2024-02-08T23:30:53.454Z,32.49
2024-02-08T23:33:24.773Z,32.49
2024-02-08T23:35:55.431Z,32.53
2024-02-08T23:38:25.750Z,32.50
2024-02-08T23:40:56.096Z,32.41
2024-02-08T23:43:26.998Z,32.26
2024-02-08T23:45:57.385Z,31.96
2024-02-08T23:48:30.220Z,31.85
2024-02-08T23:51:00.650Z,31.72
2024-02-08T23:53:32.604Z,31.72
2024-02-08T23:56:02.912Z,31.76
2024-02-08T23:58:33.259Z,31.72
